createdAt,value
2023-04-09T00:01:21.722Z,5.30
2023-04-09T00:06:24.321Z,5.60
2023-04-09T00:11:27.141Z,4.40
2023-04-09T00:16:29.861Z,5.45
2023-04-09T00:21:35.049Z,3.93
2023-04-09T00:26:37.617Z,3.83
2023-04-09T00:31:40.442Z,4.68
2023-04-09T00:36:43.004Z,4.47
2023-04-09T00:41:46.154Z,4.85
2023-04-09T00:46:48.860Z,4.27
2023-04-09T00:51:51.867Z,4.32
2023-04-09T00:56:57.011Z,4.30
2023-04-09T01:01:59.472Z,3.93
2023-04-09T01:07:31.443Z,5.43
2023-04-09T01:12:47.229Z,5.07
2023-04-09T01:18:08.754Z,4.80
2023-04-09T01:23:11.409Z,3.50
2023-04-09T01:28:34.154Z,4.67
2023-04-09T01:33:38.522Z,4.32
2023-04-09T01:38:43.312Z,3.60
2023-04-09T01:43:46.879Z,4.10
2023-04-09T01:48:50.246Z,3.85
2023-04-09T01:53:53.078Z,3.77
2023-04-09T01:58:57.137Z,4.35
2023-04-09T02:04:04.451Z,3.97
2023-04-09T02:09:09.557Z,4.10
2023-04-09T02:14:12.850Z,4.00
2023-04-09T02:19:15.960Z,3.77
2023-04-09T02:24:18.478Z,4.40
2023-04-09T02:29:21.149Z,3.63
2023-04-09T02:34:24.101Z,3.95
2023-04-09T02:39:27.580Z,3.55
2023-04-09T02:44:30.192Z,3.70
2023-04-09T02:49:33.158Z,3.40
2023-04-09T02:54:35.657Z,3.40
2023-04-09T02:59:39.314Z,3.25
2023-04-09T03:04:44.476Z,3.42
2023-04-09T03:09:46.985Z,3.17
2023-04-09T03:14:49.678Z,3.72
2023-04-09T03:19:52.730Z,4.33
2023-04-09T03:24:56.725Z,3.05
2023-04-09T03:29:59.462Z,3.33
2023-04-09T03:35:10.130Z,4.10
2023-04-09T03:40:14.371Z,3.40
2023-04-09T03:45:17.085Z,3.97
2023-04-09T03:50:22.830Z,3.47
2023-04-09T03:55:29.822Z,3.28
2023-04-09T04:00:34.642Z,3.60
2023-04-09T04:06:03.774Z,3.58
2023-04-09T04:11:17.175Z,3.83
2023-04-09T04:16:20.523Z,3.22
2023-04-09T04:21:23.125Z,4.65
2023-04-09T04:26:32.907Z,4.00
2023-04-09T04:31:35.811Z,4.07
2023-04-09T04:36:38.758Z,3.60
2023-04-09T04:41:43.511Z,4.03
2023-04-09T04:46:51.109Z,6.18
2023-04-09T04:51:53.775Z,9.17
2023-04-09T04:56:56.685Z,4.70
2023-04-09T05:02:17.648Z,8.17
2023-04-09T05:07:43.527Z,12.88
2023-04-09T05:12:46.219Z,7.25
2023-04-09T05:17:56.760Z,6.97
2023-04-09T05:23:00.006Z,6.32
2023-04-09T05:28:07.486Z,2.93
2023-04-09T05:33:11.226Z,3.45
2023-04-09T05:38:14.241Z,2.60
2023-04-09T05:43:19.949Z,2.87
2023-04-09T05:48:23.234Z,2.58
2023-04-09T05:53:27.716Z,2.50
2023-04-09T05:58:30.489Z,2.35
2023-04-09T06:03:34.289Z,4.40
2023-04-09T06:08:37.058Z,5.73
2023-04-09T06:13:39.978Z,4.07
2023-04-09T06:18:42.889Z,3.20
2023-04-09T06:23:45.868Z,3.00
2023-04-09T06:28:48.337Z,2.45
2023-04-09T06:33:51.430Z,5.27
2023-04-09T06:38:54.650Z,3.38
2023-04-09T06:43:57.130Z,2.90
2023-04-09T06:48:59.661Z,1.90
2023-04-09T06:54:02.075Z,1.40
2023-04-09T06:59:04.534Z,2.20
2023-04-09T07:04:07.350Z,2.10
2023-04-09T07:09:10.552Z,1.50
2023-04-09T07:14:16.174Z,1.30
2023-04-09T07:19:18.638Z,1.20
2023-04-09T07:24:21.264Z,2.00
2023-04-09T07:29:23.818Z,1.40
2023-04-09T07:34:26.457Z,1.37
2023-04-09T07:39:28.999Z,2.05
2023-04-09T07:44:35.283Z,1.30
2023-04-09T07:49:38.362Z,1.33
2023-04-09T07:54:41.170Z,1.25
2023-04-09T07:59:43.786Z,1.50
2023-04-09T08:04:46.699Z,1.00
2023-04-09T08:09:49.579Z,1.48
2023-04-09T08:14:53.006Z,2.20
2023-04-09T08:19:55.716Z,1.63
2023-04-09T08:25:01.467Z,1.30
2023-04-09T08:30:05.777Z,1.58
2023-04-09T08:35:09.379Z,1.45
2023-04-09T08:40:12.371Z,1.83
2023-04-09T08:45:15.187Z,1.58
2023-04-09T08:50:17.969Z,1.02
2023-04-09T08:55:20.710Z,1.37
2023-04-09T09:00:23.333Z,2.03
2023-04-09T09:05:39.297Z,1.97
2023-04-09T09:10:45.071Z,2.40
2023-04-09T09:15:50.266Z,1.75
2023-04-09T09:20:52.898Z,1.57
2023-04-09T09:25:55.708Z,1.53
2023-04-09T09:31:09.117Z,1.67
2023-04-09T09:36:12.242Z,1.70
2023-04-09T09:41:19.785Z,1.40
2023-04-09T09:46:25.239Z,1.77
2023-04-09T09:51:31.392Z,1.92
2023-04-09T09:56:39.780Z,1.53
2023-04-09T10:01:44.167Z,2.00
2023-04-09T10:06:48.600Z,2.10
2023-04-09T10:11:51.498Z,2.10
2023-04-09T10:16:54.220Z,1.80
2023-04-09T10:22:02.932Z,2.00
2023-04-09T10:27:17.334Z,1.60
2023-04-09T10:32:22.031Z,1.80
2023-04-09T10:37:26.642Z,2.22
2023-04-09T10:42:42.183Z,2.05
2023-04-09T10:47:46.489Z,1.87
2023-04-09T10:52:53.936Z,1.77
2023-04-09T10:57:56.509Z,2.08
2023-04-09T11:03:33.442Z,3.70
2023-04-09T11:08:38.243Z,2.15
2023-04-09T11:13:42.122Z,3.28
2023-04-09T11:18:44.908Z,3.10
2023-04-09T11:23:54.153Z,2.40
2023-04-09T11:28:58.362Z,2.88
2023-04-09T11:34:03.957Z,2.67
2023-04-09T11:39:06.901Z,3.00
2023-04-09T11:44:09.556Z,3.25
2023-04-09T11:49:16.403Z,3.15
2023-04-09T11:54:19.016Z,3.00
2023-04-09T11:59:22.152Z,3.35
2023-04-09T12:04:25.079Z,3.60
2023-04-09T12:09:27.932Z,3.73
2023-04-09T12:14:30.564Z,3.00
2023-04-09T12:19:36.957Z,3.30
2023-04-09T12:24:39.548Z,3.95
2023-04-09T12:29:42.123Z,4.60
2023-04-09T12:34:44.687Z,4.00
2023-04-09T12:39:48.274Z,4.47
2023-04-09T12:44:50.920Z,3.83
2023-04-09T12:49:54.819Z,4.22
2023-04-09T12:54:57.533Z,3.90
2023-04-09T13:00:01.586Z,3.70
2023-04-09T13:05:06.165Z,3.40
2023-04-09T13:10:34.670Z,3.78
2023-04-09T13:15:57.563Z,3.30
2023-04-09T13:21:20.138Z,3.43
2023-04-09T13:26:22.815Z,3.10
2023-04-09T13:31:41.305Z,2.72
2023-04-09T13:37:05.702Z,3.20
2023-04-09T13:42:13.969Z,4.05
2023-04-09T13:47:36.218Z,3.55
2023-04-09T13:52:57.300Z,3.63
2023-04-09T13:58:18.626Z,2.97
2023-04-09T14:03:21.718Z,3.40
2023-04-09T14:08:24.280Z,3.00
2023-04-09T14:13:27.054Z,3.40
2023-04-09T14:18:48.178Z,3.42
2023-04-09T14:23:51.239Z,3.10
2023-04-09T14:28:54.042Z,3.50
2023-04-09T14:33:57.037Z,3.17
2023-04-09T14:39:00.313Z,3.53
2023-04-09T14:44:03.108Z,4.17
2023-04-09T14:49:05.696Z,3.00
2023-04-09T14:54:08.234Z,3.35
2023-04-09T14:59:20.396Z,3.80
2023-04-09T15:04:24.586Z,4.00
2023-04-09T15:09:27.378Z,4.47
2023-04-09T15:14:33.830Z,3.95
2023-04-09T15:19:36.440Z,4.00
2023-04-09T15:24:39.069Z,3.90
2023-04-09T15:29:41.732Z,3.88
2023-04-09T15:34:44.895Z,3.77
2023-04-09T15:39:49.722Z,3.90
2023-04-09T15:44:52.320Z,5.47
2023-04-09T15:49:56.207Z,5.33
2023-04-09T15:54:58.930Z,3.60
2023-04-09T16:00:01.614Z,4.30
2023-04-09T16:05:07.815Z,4.10
2023-04-09T16:10:10.682Z,4.43
2023-04-09T16:15:13.240Z,4.18
2023-04-09T16:20:15.965Z,3.83
2023-04-09T16:25:18.503Z,4.20
2023-04-09T16:30:21.488Z,3.90
2023-04-09T16:35:24.130Z,3.65
2023-04-09T16:40:26.922Z,3.58
2023-04-09T16:45:30.104Z,4.27
2023-04-09T16:55:53.237Z,4.10
2023-04-09T17:00:55.806Z,4.85
2023-04-09T17:05:58.418Z,4.43
2023-04-09T17:11:04.033Z,4.70
2023-04-09T17:16:06.976Z,4.45
2023-04-09T17:21:09.838Z,3.83
2023-04-09T17:26:12.468Z,4.25
2023-04-09T17:31:16.203Z,4.13
2023-04-09T17:36:20.325Z,3.83
2023-04-09T17:41:23.404Z,3.85
2023-04-09T17:46:26.106Z,3.77
2023-04-09T17:51:29.029Z,4.43
2023-04-09T17:56:35.182Z,3.75
2023-04-09T18:01:37.865Z,4.67
2023-04-09T18:06:40.513Z,7.85
2023-04-09T18:11:43.169Z,7.37
2023-04-09T18:16:45.814Z,5.00
2023-04-09T18:21:48.469Z,4.90
2023-04-09T18:26:51.177Z,5.37
2023-04-09T18:31:57.665Z,6.72
2023-04-09T18:37:00.240Z,7.50
2023-04-09T18:42:03.868Z,8.25
2023-04-09T18:47:09.615Z,8.60
2023-04-09T18:52:12.244Z,8.87
2023-04-09T18:57:14.814Z,9.07
2023-04-09T19:02:17.370Z,9.57
2023-04-09T19:07:20.115Z,9.88
2023-04-09T19:12:22.888Z,8.57
2023-04-09T19:17:25.518Z,8.20
2023-04-09T19:22:28.452Z,7.90
2023-04-09T19:27:31.126Z,8.13
2023-04-09T19:32:33.647Z,7.82
2023-04-09T19:37:36.343Z,8.10
2023-04-09T19:42:38.991Z,8.17
2023-04-09T19:47:41.702Z,6.60
2023-04-09T19:52:44.272Z,6.20
2023-04-09T19:57:49.281Z,6.25
2023-04-09T20:02:52.046Z,6.13
2023-04-09T20:07:54.935Z,5.17
2023-04-09T20:12:58.194Z,5.75
2023-04-09T20:18:00.825Z,6.07
2023-04-09T20:23:05.955Z,5.22
2023-04-09T20:28:10.165Z,4.88
2023-04-09T20:33:13.087Z,4.93
2023-04-09T20:38:15.810Z,4.90
2023-04-09T20:43:18.416Z,5.43
2023-04-09T20:48:21.284Z,5.25
2023-04-09T20:53:26.728Z,6.13
2023-04-09T20:58:31.293Z,5.77
2023-04-09T21:03:35.209Z,6.13
2023-04-09T21:08:38.692Z,6.00
2023-04-09T21:13:53.890Z,6.00
2023-04-09T21:18:57.796Z,5.60
2023-04-09T21:24:00.530Z,6.37
2023-04-09T21:29:04.609Z,6.03
2023-04-09T21:34:07.138Z,6.00
2023-04-09T21:39:09.537Z,5.70
2023-04-09T21:44:12.066Z,6.85
2023-04-09T21:49:14.804Z,6.30
2023-04-09T21:54:17.238Z,5.78
2023-04-09T21:59:19.759Z,6.03
2023-04-09T22:04:22.655Z,6.32
2023-04-09T22:09:25.698Z,5.03
2023-04-09T22:14:29.740Z,4.30
2023-04-09T22:19:32.703Z,4.50
2023-04-09T22:24:35.288Z,3.53
2023-04-09T22:29:38.203Z,4.68
2023-04-09T22:34:40.875Z,4.13
2023-04-09T22:39:43.822Z,3.90
2023-04-09T22:44:46.407Z,5.40
2023-04-09T22:49:53.179Z,4.80
2023-04-09T22:54:55.851Z,4.32
2023-04-09T22:59:58.645Z,4.68
2023-04-09T23:05:02.429Z,4.73
2023-04-09T23:10:06.970Z,6.13
2023-04-09T23:15:09.935Z,6.17
2023-04-09T23:20:15.534Z,8.05
2023-04-09T23:25:18.839Z,5.75
2023-04-09T23:30:22.003Z,4.27
2023-04-09T23:35:24.534Z,4.20
2023-04-09T23:40:27.742Z,4.60
2023-04-09T23:45:30.709Z,4.93
2023-04-09T23:50:33.792Z,5.10
2023-04-09T23:55:41.559Z,4.10
